Time;durP1;ratioP1;P1;durP2;ratioP2;P2;SDS_P1;SDS_P2;PMS_P1;PMS_P2;Temp;Humidity;BMP_temperature;BMP_pressure;BME280_temperature;BME280_humidity;BME280_pressure;Samples;Min_cycle;Max_cycle;Signal;HPM_P1;HPM_P2
2022/12/21 00:01:24;;;;;;;14.33;8.97;;;;;;;4.15;100.00;99954.75;5025460;28;21008;-55
2022/12/21 00:03:53;;;;;;;17.10;11.30;;;;;;;4.16;100.00;99951.25;5024686;28;20503;-55
2022/12/21 00:06:21;;;;;;;10.30;8.23;;;;;;;4.20;100.00;99959.97;5025905;28;20455;-55
2022/12/21 00:08:49;;;;;;;10.10;9.13;;;;;;;4.22;100.00;99966.97;5012970;28;20510;-54
2022/12/21 00:11:16;;;;;;;6.27;5.87;;;;;;;4.23;100.00;99960.81;5029921;28;20499;-55
2022/12/21 00:13:43;;;;;;;22.77;13.17;;;;;;;4.25;100.00;99956.44;5021731;28;20451;-55
2022/12/21 00:16:12;;;;;;;10.33;8.63;;;;;;;4.25;100.00;99955.53;5045542;28;20835;-55
2022/12/21 00:18:40;;;;;;;25.07;9.60;;;;;;;4.24;100.00;99954.66;5030767;28;21043;-53
2022/12/21 00:21:10;;;;;;;12.50;7.97;;;;;;;4.26;100.00;99952.91;5016239;28;20572;-54
2022/12/21 00:23:37;;;;;;;12.03;10.47;;;;;;;4.29;100.00;99954.63;5025587;28;20450;-54
2022/12/21 00:26:05;;;;;;;9.17;8.17;;;;;;;4.32;100.00;99946.72;5026319;28;20465;-55
2022/12/21 00:28:33;;;;;;;14.03;8.50;;;;;;;4.43;100.00;99937.84;5019725;28;20551;-54
2022/12/21 00:31:10;;;;;;;18.20;9.90;;;;;;;4.32;100.00;99949.34;5025558;28;20445;-55
2022/12/21 00:33:37;;;;;;;17.03;12.30;;;;;;;4.27;100.00;99949.41;5025654;28;20873;-55
2022/12/21 00:36:06;;;;;;;11.20;9.27;;;;;;;4.28;100.00;99947.63;5019819;28;20455;-55
2022/12/21 00:38:33;;;;;;;20.07;9.57;;;;;;;4.29;100.00;99946.75;5020399;28;20475;-54
2022/12/21 00:41:03;;;;;;;12.30;8.60;;;;;;;4.19;100.00;99945.06;5020846;28;20513;-55
2022/12/21 00:43:31;;;;;;;14.03;9.33;;;;;;;4.08;100.00;99943.41;5018728;28;20520;-54
2022/12/21 00:45:58;;;;;;;12.67;8.73;;;;;;;4.07;100.00;99941.66;5023396;28;20456;-55
2022/12/21 00:48:26;;;;;;;17.53;7.33;;;;;;;4.00;100.00;99934.72;5025924;28;20483;-54
2022/12/21 00:50:53;;;;;;;18.43;11.40;;;;;;;4.04;100.00;99938.19;5022771;28;20455;-55
2022/12/21 00:53:20;;;;;;;13.03;7.00;;;;;;;4.08;100.00;99947.78;5025964;28;20941;-54
2022/12/21 00:55:55;;;;;;;12.33;11.17;;;;;;;4.08;100.00;99946.03;5022694;28;20449;-54
2022/12/21 00:58:22;;;;;;;7.73;7.13;;;;;;;4.16;100.00;99935.47;5028135;28;20474;-55
2022/12/21 01:00:49;;;;;;;13.43;11.33;;;;;;;4.14;100.00;99939.88;5024724;28;20492;-54
2022/12/21 01:03:15;;;;;;;14.57;5.67;;;;;;;4.19;100.00;99942.44;5029228;28;20457;-55
2022/12/21 01:05:46;;;;;;;16.37;8.67;;;;;;;4.15;100.00;99933.72;5027230;28;20475;-54
2022/12/21 01:08:13;;;;;;;13.47;9.20;;;;;;;4.22;100.00;99932.75;5022396;28;20546;-55
2022/12/21 01:10:39;;;;;;;13.33;9.00;;;;;;;4.16;100.00;99933.69;5029508;28;20937;-54
2022/12/21 01:13:05;;;;;;;10.67;9.73;;;;;;;4.27;100.00;99938.88;5022301;28;20444;-53
2022/12/21 01:15:32;;;;;;;11.87;10.67;;;;;;;4.27;100.00;99938.88;5046834;28;20929;-54
2022/12/21 01:17:59;;;;;;;14.53;12.50;;;;;;;4.32;100.00;99937.06;5036497;28;20510;-55
2022/12/21 01:20:25;;;;;;;12.50;10.03;;;;;;;4.37;100.00;99942.28;5035421;28;20997;-55
2022/12/21 01:22:51;;;;;;;15.33;8.90;;;;;;;4.37;100.00;99942.28;5034368;28;20487;-54
2022/12/21 01:25:18;;;;;;;14.77;10.70;;;;;;;4.39;100.00;99943.16;5024238;28;20451;-54
2022/12/21 01:27:44;;;;;;;20.40;10.90;;;;;;;4.44;100.00;99943.97;5028534;28;20457;-54
2022/12/21 01:30:11;;;;;;;18.33;9.60;;;;;;;4.46;100.00;99947.47;5025818;28;20875;-55
2022/12/21 01:32:37;;;;;;;8.13;6.90;;;;;;;4.49;100.00;99946.56;5030380;28;20459;-55
2022/12/21 01:35:04;;;;;;;21.27;11.07;;;;;;;4.46;100.00;99956.22;5027130;28;20466;-54
2022/12/21 01:37:31;;;;;;;17.30;8.70;;;;;;;4.46;100.00;99950.97;5021706;28;20950;-54
2022/12/21 01:40:00;;;;;;;12.10;8.23;;;;;;;4.51;100.00;99950.91;5022857;28;20563;-55
2022/12/21 01:42:26;;;;;;;28.77;10.80;;;;;;;4.51;100.00;99947.41;5028653;28;20488;-55
2022/12/21 01:45:13;;;;;;;12.40;10.00;;;;;;;4.51;100.00;99953.53;5027403;28;20530;-55
2022/12/21 01:47:45;;;;;;;15.37;8.43;;;;;;;4.53;100.00;99954.44;5027319;28;20808;-55
2022/12/21 01:50:26;;;;;;;10.20;9.33;;;;;;;4.54;100.00;99948.28;5028127;28;20493;-55
2022/12/21 01:52:57;;;;;;;19.67;10.20;;;;;;;4.53;100.00;99940.41;5025965;28;20506;-55
2022/12/21 01:55:25;;;;;;;26.00;8.73;;;;;;;4.54;100.00;99936.88;5019383;28;20544;-55
2022/12/21 01:57:53;;;;;;;13.23;11.13;;;;;;;4.60;100.00;99936.81;5027071;28;20452;-55
2022/12/21 02:00:20;;;;;;;16.50;10.43;;;;;;;4.58;100.00;99931.56;5025696;28;20484;-55
2022/12/21 02:02:51;;;;;;;7.40;6.87;;;;;;;4.58;100.00;99930.69;5026945;28;20518;-55
2022/12/21 02:05:34;;;;;;;20.13;9.30;;;;;;;4.58;100.00;99928.06;5021781;28;20447;-54
2022/12/21 02:08:03;;;;;;;16.37;10.17;;;;;;;4.58;100.00;99933.31;5030321;28;20451;-55
2022/12/21 02:10:30;;;;;;;11.80;9.00;;;;;;;4.61;100.00;99931.50;5021933;28;20456;-54
2022/12/21 02:13:09;;;;;;;19.87;12.37;;;;;;;4.63;100.00;99932.38;5028264;28;20949;-54
2022/12/21 02:15:54;;;;;;;17.03;10.30;;;;;;;4.65;100.00;99932.34;5044529;28;20443;-55
2022/12/21 02:19:02;;;;;;;13.80;8.63;;;;;;;4.61;100.00;99933.28;5022710;28;20811;-55
2022/12/21 02:21:33;;;;;;;9.30;6.80;;;;;;;4.69;100.00;99928.81;4941525;29;20514;-54
2022/12/21 02:24:10;;;;;;;12.83;9.90;;;;;;;4.66;100.00;99928.81;4953984;29;20941;-55
2022/12/21 02:26:58;;;;;;;20.17;12.73;;;;;;;4.67;100.00;99927.97;4991512;28;20448;-54
2022/12/21 02:29:46;;;;;;;12.83;9.10;;;;;;;4.70;100.00;99935.81;5027329;28;21002;-54
2022/12/21 02:32:31;;;;;;;11.43;9.30;;;;;;;4.67;100.00;99923.56;5020416;28;20905;-54
2022/12/21 02:35:29;;;;;;;13.03;10.30;;;;;;;4.67;100.00;99917.44;5026575;28;20448;-55
2022/12/21 02:38:16;;;;;;;9.40;8.47;;;;;;;4.66;100.00;99927.09;5022841;28;20448;-55
2022/12/21 02:40:54;;;;;;;21.70;10.17;;;;;;;4.61;100.00;99913.09;5027931;28;20461;-54
2022/12/21 02:46:46;;;;;;;10.23;9.33;;;;;;;4.63;100.00;99913.94;5022584;28;20451;-49
2022/12/21 02:49:36;;;;;;;10.43;9.43;;;;;;;4.75;100.00;99916.44;5024161;28;20475;-49
2022/12/21 02:52:06;;;;;;;9.37;7.57;;;;;;;4.64;100.00;99910.41;5012108;28;20449;-50
2022/12/21 02:54:37;;;;;;;11.43;10.20;;;;;;;4.66;100.00;99915.66;5033698;28;20835;-48
2022/12/21 02:57:04;;;;;;;13.23;10.03;;;;;;;4.65;100.00;99911.28;5020239;28;20531;-49
2022/12/21 02:59:36;;;;;;;11.90;9.33;;;;;;;4.61;100.00;99913.09;5027465;28;20471;-49
2022/12/21 03:02:31;;;;;;;13.80;9.57;;;;;;;4.60;100.00;99908.72;5020766;28;20495;-49
2022/12/21 03:05:33;;;;;;;15.67;10.80;;;;;;;4.68;100.00;99903.38;5019969;28;20626;-48
2022/12/21 03:08:43;;;;;;;8.13;7.63;;;;;;;4.67;100.00;99907.78;5006383;28;20458;-49
2022/12/21 03:11:10;;;;;;;18.27;9.73;;;;;;;4.73;100.00;99906.81;4952548;29;20559;-50
2022/12/21 03:13:42;;;;;;;19.83;9.63;;;;;;;4.70;100.00;99906.88;5010258;28;20468;-48
2022/12/21 03:16:15;;;;;;;16.10;9.70;;;;;;;4.70;100.00;99899.84;5046529;28;20802;-50
2022/12/21 03:19:18;;;;;;;11.40;9.10;;;;;;;4.74;100.00;99903.31;5022493;28;21040;-49
2022/12/21 03:21:49;;;;;;;62.37;13.37;;;;;;;4.73;100.00;99891.91;5014393;28;20488;-48
2022/12/21 03:24:28;;;;;;;13.77;8.93;;;;;;;4.77;100.00;99892.72;5028550;28;20449;-48
2022/12/21 03:27:18;;;;;;;14.73;10.47;;;;;;;4.71;100.00;99887.56;5025194;28;20531;-48
2022/12/21 03:29:53;;;;;;;12.20;7.73;;;;;;;4.78;100.00;99897.09;5021441;28;20562;-48
2022/12/21 03:32:27;;;;;;;12.43;8.10;;;;;;;4.79;100.00;99898.84;5019879;28;20988;-52
2022/12/21 03:34:57;;;;;;;20.30;10.93;;;;;;;4.78;100.00;99901.50;5023955;28;20811;-50
2022/12/21 03:37:33;;;;;;;14.33;9.07;;;;;;;4.68;100.00;99898.13;5019920;28;20455;-51
2022/12/21 03:40:06;;;;;;;16.10;9.07;;;;;;;4.74;100.00;99898.03;5025272;28;20479;-48
2022/12/21 03:42:36;;;;;;;11.70;8.27;;;;;;;4.66;100.00;99897.25;5019974;28;20549;-48
2022/12/21 03:45:09;;;;;;;8.57;7.87;;;;;;;4.68;100.00;99892.84;5019276;28;20448;-48
2022/12/21 03:47:44;;;;;;;9.30;8.47;;;;;;;4.65;100.00;99896.38;5024225;28;21021;-48
2022/12/21 03:50:16;;;;;;;7.43;6.60;;;;;;;4.71;100.00;99898.09;5025795;28;20994;-49
2022/12/21 03:52:52;;;;;;;8.67;8.27;;;;;;;4.66;100.00;99887.63;5023481;28;20444;-49
2022/12/21 03:55:29;;;;;;;19.97;11.83;;;;;;;4.65;100.00;99890.22;5027221;28;20796;-49
2022/12/21 03:57:57;;;;;;;10.93;9.90;;;;;;;4.67;100.00;99897.25;5025691;28;20531;-49
2022/12/21 04:00:27;;;;;;;25.40;9.80;;;;;;;4.66;100.00;99900.78;5018698;28;20452;-49
2022/12/21 04:03:08;;;;;;;11.50;10.40;;;;;;;4.65;100.00;99900.75;5025998;28;20562;-49
2022/12/21 04:05:54;;;;;;;16.70;11.57;;;;;;;4.71;100.00;99887.56;5022352;28;20947;-48
2022/12/21 04:08:23;;;;;;;18.57;9.40;;;;;;;4.80;100.00;99889.19;5019229;28;20837;-48
2022/12/21 04:10:50;;;;;;;16.63;8.30;;;;;;;4.80;100.00;99879.56;5019180;28;20544;-48
2022/12/21 04:13:16;;;;;;;15.83;11.93;;;;;;;4.86;100.00;99883.88;5019195;28;20980;-51
2022/12/21 04:21:12;;;;;;;23.83;10.47;;;;;;;4.84;100.00;99873.34;5014798;28;20470;-49
2022/12/21 04:29:08;;;;;;;15.40;9.80;;;;;;;5.16;100.00;99877.34;5018893;28;20479;-48
2022/12/21 04:31:34;;;;;;;14.50;10.07;;;;;;;4.95;100.00;99878.50;5026860;28;20448;-48
2022/12/21 04:34:01;;;;;;;17.50;10.67;;;;;;;4.93;100.00;99874.97;5022065;28;20452;-50
2022/12/21 04:39:12;;;;;;;11.30;9.33;;;;;;;4.96;100.00;99885.50;5019542;28;20475;-48
2022/12/21 04:41:39;;;;;;;9.17;8.37;;;;;;;4.95;100.00;99879.38;5019897;28;20508;-49
2022/12/21 04:44:05;;;;;;;7.97;6.97;;;;;;;4.97;100.00;99879.34;5025712;28;20452;-50
2022/12/21 04:46:32;;;;;;;28.87;10.60;;;;;;;4.90;100.00;99885.56;5025066;28;20490;-49
2022/12/21 04:48:58;;;;;;;33.37;11.90;;;;;;;4.95;100.00;99886.41;5018364;28;20476;-51
2022/12/21 04:51:25;;;;;;;20.93;11.27;;;;;;;4.93;100.00;99878.47;5018608;28;20475;-49
2022/12/21 04:53:52;;;;;;;13.57;9.30;;;;;;;4.93;100.00;99882.88;5025086;28;20503;-49
2022/12/21 04:56:19;;;;;;;19.87;10.80;;;;;;;5.00;100.00;99887.19;5023527;28;20451;-49
2022/12/21 04:58:45;;;;;;;61.50;15.00;;;;;;;5.02;100.00;99880.16;5018282;28;20491;-49
2022/12/21 05:01:15;;;;;;;14.97;10.53;;;;;;;5.00;100.00;99877.53;5018776;28;20966;-49
2022/12/21 05:03:42;;;;;;;10.27;7.23;;;;;;;5.07;100.00;99873.03;5018574;28;20574;-49
2022/12/21 05:06:10;;;;;;;21.70;9.00;;;;;;;5.10;100.00;99877.44;5019788;28;20480;-49
2022/12/21 05:08:37;;;;;;;16.87;9.53;;;;;;;5.10;100.00;99875.66;5019041;28;20495;-49
2022/12/21 05:11:23;;;;;;;15.90;10.63;;;;;;;5.13;100.00;99874.75;5023918;28;20455;-49
2022/12/21 05:13:50;;;;;;;11.03;7.30;;;;;;;5.09;100.00;99873.91;5021801;28;20451;-49
2022/12/21 05:16:22;;;;;;;48.10;9.63;;;;;;;5.08;100.00;99877.44;5032778;28;20456;-49
2022/12/21 05:18:49;;;;;;;10.80;9.83;;;;;;;5.08;100.00;99864.28;5019111;28;20472;-49
2022/12/21 05:21:16;;;;;;;15.17;11.53;;;;;;;5.11;100.00;99866.00;5014018;28;20440;-49
2022/12/21 05:23:43;;;;;;;22.03;11.93;;;;;;;5.12;100.00;99854.56;5029408;28;20483;-49
2022/12/21 05:26:10;;;;;;;18.83;10.77;;;;;;;5.12;100.00;99855.44;5018622;28;20493;-49
2022/12/21 05:28:43;;;;;;;9.37;8.47;;;;;;;5.17;100.00;99844.81;5019190;28;20464;-50
2022/12/21 05:31:09;;;;;;;21.80;8.70;;;;;;;5.26;100.00;99853.47;5027572;28;20452;-49
2022/12/21 05:33:36;;;;;;;33.87;15.37;;;;;;;5.25;100.00;99853.50;5018550;28;20973;-48
2022/12/21 05:36:05;;;;;;;14.97;9.57;;;;;;;5.24;100.00;99851.75;5025506;28;20453;-49
2022/12/21 05:38:31;;;;;;;22.23;10.10;;;;;;;5.20;100.00;99845.66;5024820;28;20561;-48
2022/12/21 05:40:57;;;;;;;16.40;7.93;;;;;;;5.24;100.00;99843.88;5018241;28;20448;-49
2022/12/21 05:43:24;;;;;;;15.27;12.50;;;;;;;5.22;100.00;99843.88;5019239;28;21009;-52
2022/12/21 05:45:50;;;;;;;12.70;10.03;;;;;;;5.18;100.00;99849.19;5020826;28;20451;-49
2022/12/21 05:48:17;;;;;;;14.07;8.60;;;;;;;5.27;100.00;99846.44;5022039;28;20476;-49
2022/12/21 05:50:43;;;;;;;11.40;9.80;;;;;;;5.27;100.00;99849.94;5028139;28;20459;-50
2022/12/21 05:53:10;;;;;;;14.13;12.47;;;;;;;5.28;100.00;99853.44;5028978;28;20443;-50
2022/12/21 05:55:43;;;;;;;19.03;12.20;;;;;;;5.25;100.00;99853.50;5027488;28;20460;-49
2022/12/21 05:58:10;;;;;;;29.13;10.73;;;;;;;5.25;100.00;99854.38;5028525;28;20455;-49
2022/12/21 06:00:36;;;;;;;13.00;9.00;;;;;;;5.26;100.00;99852.59;5023451;28;20459;-49
2022/12/21 06:03:04;;;;;;;16.47;11.20;;;;;;;5.20;100.00;99857.94;5021238;28;21064;-50
2022/12/21 06:05:33;;;;;;;15.00;12.00;;;;;;;5.18;100.00;99854.47;5026094;28;20559;-49
2022/12/21 06:07:59;;;;;;;15.17;10.40;;;;;;;5.02;100.00;99854.69;5028166;28;20616;-51
2022/12/21 06:10:26;;;;;;;8.00;7.43;;;;;;;4.95;100.00;99850.41;5023967;28;20456;-49
2022/12/21 06:12:53;;;;;;;7.50;6.87;;;;;;;4.98;100.00;99845.09;5020908;28;20452;-49
2022/12/21 06:15:19;;;;;;;11.63;6.90;;;;;;;4.99;100.00;99852.09;5044467;28;20448;-50
2022/12/21 06:17:46;;;;;;;15.17;9.57;;;;;;;5.01;100.00;99857.34;5035295;28;20463;-50
2022/12/21 06:20:12;;;;;;;19.23;9.97;;;;;;;5.03;100.00;99858.19;5024264;28;20483;-50
2022/12/21 06:22:40;;;;;;;9.07;6.93;;;;;;;5.08;100.00;99863.41;5033397;28;20527;-50
2022/12/21 06:25:07;;;;;;;11.27;10.20;;;;;;;5.28;100.00;99861.34;5024434;28;20474;-49
2022/12/21 06:27:34;;;;;;;17.17;8.43;;;;;;;5.25;100.00;99871.94;5027654;28;20453;-49
2022/12/21 06:30:00;;;;;;;19.83;8.20;;;;;;;5.37;100.00;99869.16;5024873;28;20542;-48
2022/12/21 06:32:27;;;;;;;11.53;8.20;;;;;;;5.31;100.00;99866.56;5021075;28;20879;-49
2022/12/21 06:34:53;;;;;;;17.73;10.67;;;;;;;5.17;100.00;99856.22;5023950;28;20449;-51
2022/12/21 06:37:20;;;;;;;7.30;6.53;;;;;;;5.15;100.00;99857.16;5027604;28;20455;-50
2022/12/21 06:39:46;;;;;;;15.50;8.70;;;;;;;5.21;100.00;99855.31;5024742;28;20483;-49
2022/12/21 06:42:12;;;;;;;10.43;8.40;;;;;;;5.24;100.00;99852.63;5020455;28;20821;-50
2022/12/21 06:44:39;;;;;;;18.93;9.77;;;;;;;5.23;100.00;99848.25;5023324;28;20452;-50
2022/12/21 06:47:05;;;;;;;12.73;8.60;;;;;;;5.20;100.00;99866.72;5027463;28;20794;-49
2022/12/21 06:49:32;;;;;;;13.73;8.77;;;;;;;5.24;100.00;99859.66;5024744;28;20474;-49
2022/12/21 06:51:58;;;;;;;29.13;8.30;;;;;;;5.19;100.00;99874.66;5020397;28;20456;-49
2022/12/21 06:54:24;;;;;;;15.57;9.50;;;;;;;5.18;100.00;99875.53;5032829;28;20455;-51
2022/12/21 06:56:51;;;;;;;15.60;9.07;;;;;;;5.21;100.00;99878.16;5019907;28;20451;-49
2022/12/21 06:59:17;;;;;;;11.07;7.50;;;;;;;5.21;100.00;99879.03;5022750;28;20476;-50
2022/12/21 07:01:43;;;;;;;7.87;6.13;;;;;;;5.18;100.00;99879.03;5027630;28;20448;-51
2022/12/21 07:04:10;;;;;;;11.50;9.77;;;;;;;5.18;100.00;99884.31;5025308;28;20495;-50
2022/12/21 07:06:36;;;;;;;10.87;9.83;;;;;;;5.11;100.00;99880.03;5020113;28;20833;-50
2022/12/21 07:09:03;;;;;;;8.10;7.40;;;;;;;5.25;100.00;99872.81;5021805;28;20472;-51
2022/12/21 07:11:30;;;;;;;22.97;9.27;;;;;;;5.27;100.00;99878.06;5027799;28;20452;-51
2022/12/21 07:13:56;;;;;;;18.40;9.67;;;;;;;5.28;100.00;99887.72;5026577;28;20444;-50
2022/12/21 07:16:23;;;;;;;19.13;9.23;;;;;;;5.29;100.00;99881.53;5046822;28;20487;-48
2022/12/21 07:18:51;;;;;;;15.67;10.47;;;;;;;5.24;100.00;99881.63;5004198;28;21057;-48
2022/12/21 07:21:19;;;;;;;10.93;8.70;;;;;;;5.28;100.00;99879.81;5030885;28;20463;-49
2022/12/21 07:23:46;;;;;;;7.17;6.60;;;;;;;5.30;100.00;99888.56;5032921;28;20580;-49
2022/12/21 07:26:18;;;;;;;10.23;8.57;;;;;;;5.22;100.00;99890.44;5019864;28;20910;-49
2022/12/21 07:28:45;;;;;;;11.30;8.70;;;;;;;5.22;100.00;99886.03;5019862;28;21009;-49
2022/12/21 07:31:15;;;;;;;12.07;9.23;;;;;;;5.26;100.00;99889.50;5020225;28;20451;-49
2022/12/21 07:33:41;;;;;;;8.90;7.47;;;;;;;5.30;100.00;99883.28;5019785;28;20483;-49
2022/12/21 07:36:09;;;;;;;25.73;9.87;;;;;;;5.34;100.00;99890.25;5026022;28;20809;-49
2022/12/21 07:38:37;;;;;;;10.03;8.87;;;;;;;5.33;100.00;99891.13;5026278;28;20479;-49
2022/12/21 07:41:06;;;;;;;8.43;6.73;;;;;;;5.42;100.00;99891.03;5020543;28;20462;-50
2022/12/21 07:43:33;;;;;;;15.20;10.90;;;;;;;5.54;100.00;99898.75;5019559;28;20994;-49
2022/12/21 07:46:01;;;;;;;7.97;6.57;;;;;;;5.59;100.00;99891.63;5025127;28;20460;-49
2022/12/21 07:48:29;;;;;;;15.00;9.03;;;;;;;5.63;100.00;99895.13;5026476;28;20489;-49
2022/12/21 07:50:57;;;;;;;10.13;9.17;;;;;;;5.61;100.00;99900.38;5021262;28;20676;-48
2022/12/21 07:53:24;;;;;;;12.90;8.40;;;;;;;5.71;100.00;99895.00;5028890;28;20478;-50
2022/12/21 07:55:50;;;;;;;12.37;8.83;;;;;;;5.65;100.00;99894.19;5024299;28;20456;-49
2022/12/21 07:58:17;;;;;;;8.30;6.60;;;;;;;5.64;100.00;99894.22;5026348;28;20475;-49
2022/12/21 08:00:43;;;;;;;9.07;8.47;;;;;;;5.65;100.00;99896.84;5021701;28;20456;-48
2022/12/21 08:03:09;;;;;;;9.37;8.70;;;;;;;5.65;100.00;99894.19;5029926;28;20490;-50
2022/12/21 08:05:36;;;;;;;7.37;6.87;;;;;;;5.72;100.00;99900.25;5021631;28;20933;-48
2022/12/21 08:08:03;;;;;;;12.37;11.17;;;;;;;5.71;100.00;99893.22;5019266;28;20453;-49
2022/12/21 08:10:30;;;;;;;11.27;8.93;;;;;;;5.72;100.00;99900.25;5023649;28;20507;-49
2022/12/21 08:12:56;;;;;;;10.03;8.67;;;;;;;5.74;100.00;99900.22;5025899;28;20547;-49
2022/12/21 08:15:23;;;;;;;33.17;7.93;;;;;;;5.74;100.00;99897.56;5038894;28;20446;-49
2022/12/21 08:17:51;;;;;;;31.63;9.73;;;;;;;5.66;100.00;99897.72;5031940;28;20456;-50
2022/12/21 08:20:18;;;;;;;10.40;9.20;;;;;;;5.70;100.00;99895.88;5022537;28;20964;-49
2022/12/21 08:22:45;;;;;;;11.40;9.63;;;;;;;5.78;100.00;99897.53;5031111;28;21005;-49
2022/12/21 08:25:11;;;;;;;18.03;10.10;;;;;;;5.87;100.00;99896.50;5022029;28;20448;-49
2022/12/21 08:27:38;;;;;;;17.23;8.83;;;;;;;5.94;100.00;99903.47;5025313;28;20939;-49
2022/12/21 08:30:05;;;;;;;9.83;7.97;;;;;;;5.94;100.00;99891.13;5023298;28;21000;-49
2022/12/21 08:32:32;;;;;;;17.77;12.03;;;;;;;6.05;100.00;99906.78;5018758;28;20510;-49
2022/12/21 08:35:01;;;;;;;17.13;9.80;;;;;;;6.03;100.00;99905.06;5020744;28;20455;-51
2022/12/21 08:37:28;;;;;;;15.73;11.77;;;;;;;6.03;100.00;99905.97;5023815;28;20538;-49
2022/12/21 08:39:54;;;;;;;22.87;10.67;;;;;;;6.10;100.00;99912.84;5032040;28;20486;-49
2022/12/21 08:42:20;;;;;;;12.50;7.87;;;;;;;6.13;100.00;99910.16;5018859;28;20448;-49
2022/12/21 08:44:48;;;;;;;10.37;9.37;;;;;;;6.16;100.00;99911.88;5021155;28;20492;-52
2022/12/21 08:47:14;;;;;;;17.23;11.87;;;;;;;6.16;100.00;99903.97;5025473;28;20832;-49
2022/12/21 08:49:40;;;;;;;16.60;10.83;;;;;;;6.16;100.00;99904.81;5023991;28;20957;-51
2022/12/21 08:52:07;;;;;;;14.83;9.77;;;;;;;6.22;100.00;99910.03;5018691;28;20451;-49
2022/12/21 08:54:34;;;;;;;14.13;9.50;;;;;;;6.27;100.00;99914.34;5031910;28;20945;-50
2022/12/21 08:57:01;;;;;;;15.23;11.90;;;;;;;6.18;100.00;99910.97;5018684;28;20460;-49
2022/12/21 08:59:27;;;;;;;20.87;11.87;;;;;;;6.19;100.00;99911.84;5020422;28;20473;-50
2022/12/21 09:01:54;;;;;;;12.53;10.27;;;;;;;6.13;100.00;99914.56;5025594;28;20479;-49
2022/12/21 09:04:20;;;;;;;11.77;9.00;;;;;;;6.20;100.00;99922.38;5024491;28;20491;-50
2022/12/21 09:06:47;;;;;;;12.67;9.23;;;;;;;6.13;100.00;99925.13;5018403;28;20963;-52
2022/12/21 09:09:13;;;;;;;42.33;12.73;;;;;;;6.12;100.00;99931.28;5019852;28;20479;-49
2022/12/21 09:11:40;;;;;;;19.67;10.27;;;;;;;6.11;100.00;99922.50;5025498;28;20448;-49
2022/12/21 09:14:20;;;;;;;12.23;10.80;;;;;;;6.16;100.00;99928.56;5027529;28;20471;-49
2022/12/21 09:16:46;;;;;;;13.80;11.87;;;;;;;6.15;100.00;99932.13;5043871;28;20458;-49
2022/12/21 09:19:13;;;;;;;15.60;10.30;;;;;;;6.07;100.00;99934.03;5021248;28;20468;-50
2022/12/21 09:21:40;;;;;;;14.93;11.43;;;;;;;5.98;100.00;99942.06;5034918;28;20789;-50
2022/12/21 09:24:07;;;;;;;13.20;11.97;;;;;;;6.07;100.00;99943.72;5033961;28;20487;-49
2022/12/21 09:26:33;;;;;;;20.10;13.20;;;;;;;5.96;100.00;99937.72;5024325;28;20498;-49
2022/12/21 09:29:00;;;;;;;19.17;9.03;;;;;;;6.00;100.00;99942.91;5022627;28;20601;-49
2022/12/21 09:31:26;;;;;;;14.93;9.80;;;;;;;5.97;100.00;99950.88;5027435;28;20803;-49
2022/12/21 09:33:54;;;;;;;28.93;11.43;;;;;;;5.96;100.00;99949.16;5028997;28;20440;-49
2022/12/21 09:36:22;;;;;;;24.57;11.60;;;;;;;5.93;100.00;99949.19;5024714;28;20456;-49
2022/12/21 09:38:48;;;;;;;21.00;9.50;;;;;;;5.95;100.00;99950.03;5021932;28;20476;-49
2022/12/21 09:41:28;;;;;;;48.47;11.70;;;;;;;5.93;100.00;99941.28;5026331;28;20880;-50
2022/12/21 09:44:13;;;;;;;19.23;14.10;;;;;;;5.96;100.00;99946.50;5029214;28;20590;-50
2022/12/21 09:46:42;;;;;;;13.77;8.23;;;;;;;6.03;100.00;99940.25;5028944;28;20538;-50
2022/12/21 09:49:25;;;;;;;10.40;9.60;;;;;;;6.22;100.00;99946.09;5023470;28;20569;-50
2022/12/21 09:51:56;;;;;;;16.13;11.13;;;;;;;6.25;100.00;99946.03;5022138;28;20824;-50
2022/12/21 09:54:34;;;;;;;12.20;9.27;;;;;;;6.30;100.00;99935.38;5035166;28;20906;-49
2022/12/21 09:57:01;;;;;;;9.80;8.03;;;;;;;6.31;100.00;99945.94;5021852;28;20443;-50
2022/12/21 09:59:28;;;;;;;19.20;10.43;;;;;;;6.27;100.00;99948.66;5023316;28;20472;-49
2022/12/21 10:02:30;;;;;;;14.17;10.60;;;;;;;6.30;100.00;99953.88;5028290;28;20876;-49
2022/12/21 10:05:19;;;;;;;17.33;12.50;;;;;;;6.41;100.00;99954.56;5028422;28;20492;-49
2022/12/21 10:07:55;;;;;;;8.83;8.03;;;;;;;6.64;100.00;99955.03;5028118;28;20447;-50
2022/12/21 10:10:34;;;;;;;21.40;11.50;;;;;;;6.62;100.00;99948.91;5023632;28;20448;-49
2022/12/21 10:13:25;;;;;;;13.70;9.67;;;;;;;6.65;100.00;99948.84;5021650;28;20451;-50
2022/12/21 10:16:12;;;;;;;11.53;10.10;;;;;;;6.92;100.00;99946.59;5041982;28;20449;-50
2022/12/21 10:18:51;;;;;;;13.40;10.17;;;;;;;6.91;100.00;99950.16;5024105;28;20986;-51
2022/12/21 10:21:42;;;;;;;9.97;8.90;;;;;;;6.75;100.00;99941.66;5032610;28;20455;-50
2022/12/21 10:24:24;;;;;;;18.87;9.00;;;;;;;6.75;100.00;99946.94;5032319;28;20570;-49
2022/12/21 10:26:58;;;;;;;18.70;9.33;;;;;;;6.75;100.00;99946.94;5025654;28;20943;-50
2022/12/21 10:29:35;;;;;;;13.33;10.43;;;;;;;6.79;100.00;99956.53;5021375;28;20468;-49
2022/12/21 10:32:02;;;;;;;11.00;9.87;;;;;;;6.88;100.00;99953.72;5021221;28;20455;-49
2022/12/21 10:34:36;;;;;;;16.97;9.90;;;;;;;6.83;100.00;99943.22;5027289;28;20445;-50
2022/12/21 10:37:12;;;;;;;10.43;9.27;;;;;;;6.89;100.00;99939.59;5027969;28;20824;-49
2022/12/21 10:39:40;;;;;;;16.63;10.53;;;;;;;6.92;100.00;99941.31;5023621;28;20475;-50
2022/12/21 10:42:24;;;;;;;11.60;8.70;;;;;;;6.95;100.00;99941.25;5003395;28;20448;-49
2022/12/21 10:44:52;;;;;;;13.37;9.30;;;;;;;7.01;100.00;99949.06;5021948;28;20575;-50
2022/12/21 10:47:23;;;;;;;17.50;10.40;;;;;;;7.04;100.00;99949.88;5027546;28;20453;-52
2022/12/21 10:50:03;;;;;;;19.63;9.40;;;;;;;7.08;100.00;99955.97;5027659;28;20619;-50
2022/12/21 10:52:40;;;;;;;25.70;12.07;;;;;;;7.25;100.00;99942.41;5029590;28;20443;-50
2022/12/21 10:55:18;;;;;;;15.30;9.67;;;;;;;7.27;100.00;99944.13;5030668;28;20451;-49
2022/12/21 10:57:53;;;;;;;18.87;11.60;;;;;;;7.29;100.00;99939.69;5026109;28;20443;-50
2022/12/21 11:00:27;;;;;;;18.27;11.47;;;;;;;7.39;100.00;99940.34;5020564;28;20487;-50
2022/12/21 11:03:02;;;;;;;16.67;12.43;;;;;;;7.46;100.00;99936.69;5020590;28;20453;-49
2022/12/21 11:05:35;;;;;;;15.40;9.97;;;;;;;7.53;100.00;99932.97;5024712;28;20488;-50
2022/12/21 11:08:15;;;;;;;20.43;10.70;;;;;;;7.51;100.00;99928.63;5027291;28;20457;-49
2022/12/21 11:10:46;;;;;;;13.90;9.70;;;;;;;7.52;100.00;99925.06;5025865;28;20653;-50
2022/12/21 11:13:20;;;;;;;35.23;12.13;;;;;;;7.61;100.00;99935.47;5026604;28;21012;-49
2022/12/21 11:15:59;;;;;;;16.87;10.53;;;;;;;7.69;100.00;99929.09;5046097;28;20538;-49
2022/12/21 11:18:38;;;;;;;15.17;10.00;;;;;;;7.85;100.00;99918.16;5022475;28;20475;-50
2022/12/21 11:21:30;;;;;;;13.13;8.37;;;;;;;7.96;100.00;99919.66;5017747;28;20530;-49
2022/12/21 11:24:23;;;;;;;15.70;10.77;;;;;;;8.14;100.00;99910.41;5008332;28;20496;-49
2022/12/21 11:26:52;;;;;;;14.27;9.90;;;;;;;8.35;100.00;99910.78;5024975;28;20462;-49
2022/12/21 11:29:29;;;;;;;23.83;10.07;;;;;;;8.52;100.00;99898.00;5019961;28;20471;-49
2022/12/21 11:32:03;;;;;;;19.17;13.00;;;;;;;8.64;100.00;99894.16;5020453;28;20444;-49
2022/12/21 11:34:52;;;;;;;16.80;12.53;;;;;;;8.86;100.00;99888.19;5021157;28;20454;-50
2022/12/21 11:37:31;;;;;;;13.57;10.70;;;;;;;9.10;100.00;99889.28;5019733;28;20845;-49
2022/12/21 11:40:17;;;;;;;8.20;7.50;;;;;;;9.28;100.00;99889.66;5019763;28;20863;-49
2022/12/21 11:42:59;;;;;;;20.50;11.63;;;;;;;9.54;100.00;99884.41;5021569;28;20448;-49
2022/12/21 11:46:27;;;;;;;15.00;10.60;;;;;;;9.72;100.00;99886.50;5019535;28;20551;-48
2022/12/21 11:49:28;;;;;;;24.90;10.60;;;;;;;9.92;100.00;99887.66;5023894;28;20496;-49
2022/12/21 11:52:16;;;;;;;10.10;7.07;;;;;;;10.18;100.00;99881.50;5026268;28;20444;-49
2022/12/21 11:55:01;;;;;;;6.63;6.13;;;;;;;10.52;100.00;99875.91;5025986;28;20502;-49
2022/12/21 11:57:36;;;;;;;5.57;5.27;;;;;;;10.69;100.00;99878.88;5022971;28;20819;-49
2022/12/21 12:00:08;;;;;;;2.40;2.20;;;;;;;10.90;100.00;99871.88;5019131;28;20550;-49
2022/12/21 12:03:30;;;;;;;1.03;1.00;;;;;;;11.16;100.00;99870.94;5019127;28;20507;-50